Hovedside
METAR-TAF:

METAR-TAF

Lufthavner :

Nyslott, Finland

Nyslott lufthavn

breddegrad: 61-57N, lengdegrad: 028-57E, høyde over havet: 95 m

Gjeldene værobservasjon

Denne rapporten ble laget for 13 minutter siden, klokken 10:20 UTC
Vind 5 kt fra Sør-sørøst, skiftende mellom Øst og Sør-sørvest
Temperatur 13°C
Luftfuktighet 94%
Trykk 995 hPa
Sikt 10 km eller mer
Overskyet i en høyde av 800 ft
lett regn

METAR: EFSA 251020Z AUTO 16005KT 100V210 9999 -RA OVC008 13/12 Q0995

Tid: 13:33 (10:33 UTC)


TAF: fraværende

Værobservasjoner og værvarsel for over 4000 flyplasser (METAR- og TAF-rapporter).

Tilgjengelige stasjoner er representert av de røde og gule prikkene på kartet.

Hold musepekeren over prikken for å se navnet på stasjonen.

Klikk så for å se værobservasjoner og -varsler.

For å forandre kartet kan du klikke på den grønne knappen med svart kryss for å zoome inn, på den grønne knappen med strek for å zoome ut, eller på de grønne pilene for å se tilstøtende kart.


METAR-TAF: